Terminal Aerodrome Forecast
Issued by NWS Melbourne, FL

Current Version | Previous Version | Text Only | Print | Product List | Glossary On
Versions: 1 2 3 4 5 6 7 8 9 10 11 12 13 14
485
FTUS42 KMLB 231727
TAFMLB
TAF
KMLB 231727Z 2318/2418 27022G32KT P6SM BKN040
     FM232300 28014G20KT P6SM FEW040
     FM240600 30012KT P6SM SKC=

USA.gov is the U.S. government's official web portal to all federal, state and local government web resources and services.